sensor_id;sensor_type;location;lat;lon;timestamp;P1;durP1;ratioP1;P2;durP2;ratioP2
23732;SDS011;12047;53.450;-2.286;2022-12-29T00:01:59;19.45;;;3.20;;
23732;SDS011;12047;53.450;-2.286;2022-12-29T00:07:00;19.95;;;3.03;;
23732;SDS011;12047;53.450;-2.286;2022-12-29T00:12:01;15.95;;;2.83;;
23732;SDS011;12047;53.450;-2.286;2022-12-29T00:17:02;23.02;;;3.50;;
23732;SDS011;12047;53.450;-2.286;2022-12-29T00:22:03;16.50;;;3.05;;
23732;SDS011;12047;53.450;-2.286;2022-12-29T00:27:22;24.80;;;4.22;;
23732;SDS011;12047;53.450;-2.286;2022-12-29T00:32:42;20.63;;;2.58;;
23732;SDS011;12047;53.450;-2.286;2022-12-29T00:38:03;19.40;;;3.13;;
23732;SDS011;12047;53.450;-2.286;2022-12-29T00:43:26;27.08;;;3.50;;
23732;SDS011;12047;53.450;-2.286;2022-12-29T00:48:44;18.15;;;2.72;;
23732;SDS011;12047;53.450;-2.286;2022-12-29T00:54:03;8.48;;;2.35;;
23732;SDS011;12047;53.450;-2.286;2022-12-29T00:59:05;12.82;;;4.32;;
23732;SDS011;12047;53.450;-2.286;2022-12-29T01:09:32;5.28;;;1.25;;
23732;SDS011;12047;53.450;-2.286;2022-12-29T01:14:51;9.88;;;1.55;;
23732;SDS011;12047;53.450;-2.286;2022-12-29T01:19:51;11.07;;;2.03;;
23732;SDS011;12047;53.450;-2.286;2022-12-29T01:24:52;9.27;;;5.03;;
23732;SDS011;12047;53.450;-2.286;2022-12-29T01:29:53;8.35;;;5.75;;
23732;SDS011;12047;53.450;-2.286;2022-12-29T01:34:54;1.95;;;0.80;;
23732;SDS011;12047;53.450;-2.286;2022-12-29T01:39:54;5.20;;;1.23;;
23732;SDS011;12047;53.450;-2.286;2022-12-29T01:44:56;6.68;;;1.10;;
23732;SDS011;12047;53.450;-2.286;2022-12-29T01:49:59;7.47;;;0.80;;
23732;SDS011;12047;53.450;-2.286;2022-12-29T01:55:04;6.97;;;0.98;;
23732;SDS011;12047;53.450;-2.286;2022-12-29T02:00:07;3.13;;;1.10;;
23732;SDS011;12047;53.450;-2.286;2022-12-29T02:05:11;6.88;;;1.25;;
23732;SDS011;12047;53.450;-2.286;2022-12-29T02:10:25;5.20;;;1.17;;
23732;SDS011;12047;53.450;-2.286;2022-12-29T02:21:29;7.10;;;1.25;;
23732;SDS011;12047;53.450;-2.286;2022-12-29T02:37:04;5.82;;;1.25;;
23732;SDS011;12047;53.450;-2.286;2022-12-29T02:42:33;10.43;;;1.60;;
23732;SDS011;12047;53.450;-2.286;2022-12-29T02:47:45;10.27;;;1.42;;
23732;SDS011;12047;53.450;-2.286;2022-12-29T02:53:02;6.25;;;1.40;;
23732;SDS011;12047;53.450;-2.286;2022-12-29T02:58:20;8.93;;;1.50;;
23732;SDS011;12047;53.450;-2.286;2022-12-29T03:03:26;9.55;;;1.35;;
23732;SDS011;12047;53.450;-2.286;2022-12-29T03:08:38;8.77;;;1.40;;
23732;SDS011;12047;53.450;-2.286;2022-12-29T03:14:14;5.90;;;1.35;;
23732;SDS011;12047;53.450;-2.286;2022-12-29T03:19:46;4.68;;;1.20;;
23732;SDS011;12047;53.450;-2.286;2022-12-29T03:25:05;7.95;;;1.25;;
23732;SDS011;12047;53.450;-2.286;2022-12-29T03:30:11;14.35;;;1.70;;
23732;SDS011;12047;53.450;-2.286;2022-12-29T03:35:14;9.32;;;1.40;;
23732;SDS011;12047;53.450;-2.286;2022-12-29T03:40:17;7.10;;;1.40;;
23732;SDS011;12047;53.450;-2.286;2022-12-29T03:45:21;7.97;;;1.40;;
23732;SDS011;12047;53.450;-2.286;2022-12-29T03:50:21;8.18;;;1.30;;
23732;SDS011;12047;53.450;-2.286;2022-12-29T03:55:22;7.13;;;1.33;;
23732;SDS011;12047;53.450;-2.286;2022-12-29T04:00:23;5.57;;;1.55;;
23732;SDS011;12047;53.450;-2.286;2022-12-29T04:05:24;5.55;;;1.40;;
23732;SDS011;12047;53.450;-2.286;2022-12-29T04:10:25;10.20;;;1.60;;
23732;SDS011;12047;53.450;-2.286;2022-12-29T04:15:25;8.73;;;1.40;;
23732;SDS011;12047;53.450;-2.286;2022-12-29T04:20:26;10.68;;;1.90;;
23732;SDS011;12047;53.450;-2.286;2022-12-29T04:25:45;7.72;;;1.90;;
23732;SDS011;12047;53.450;-2.286;2022-12-29T04:30:50;12.30;;;1.80;;
23732;SDS011;12047;53.450;-2.286;2022-12-29T04:35:51;9.52;;;1.98;;
23732;SDS011;12047;53.450;-2.286;2022-12-29T04:40:54;9.35;;;1.98;;
23732;SDS011;12047;53.450;-2.286;2022-12-29T04:45:54;9.68;;;1.73;;
23732;SDS011;12047;53.450;-2.286;2022-12-29T04:50:55;8.88;;;1.70;;
23732;SDS011;12047;53.450;-2.286;2022-12-29T04:55:56;8.23;;;1.70;;
23732;SDS011;12047;53.450;-2.286;2022-12-29T05:00:56;13.90;;;1.80;;
23732;SDS011;12047;53.450;-2.286;2022-12-29T05:05:57;13.73;;;1.73;;
23732;SDS011;12047;53.450;-2.286;2022-12-29T05:11:01;9.52;;;1.73;;
23732;SDS011;12047;53.450;-2.286;2022-12-29T05:16:02;6.90;;;1.27;;
23732;SDS011;12047;53.450;-2.286;2022-12-29T05:21:02;7.13;;;1.30;;
23732;SDS011;12047;53.450;-2.286;2022-12-29T05:26:03;7.07;;;1.35;;
23732;SDS011;12047;53.450;-2.286;2022-12-29T05:31:04;9.77;;;1.30;;
23732;SDS011;12047;53.450;-2.286;2022-12-29T05:36:05;12.23;;;1.70;;
23732;SDS011;12047;53.450;-2.286;2022-12-29T05:41:07;9.95;;;1.45;;
23732;SDS011;12047;53.450;-2.286;2022-12-29T05:46:08;7.22;;;1.40;;
23732;SDS011;12047;53.450;-2.286;2022-12-29T05:51:08;6.05;;;1.00;;
23732;SDS011;12047;53.450;-2.286;2022-12-29T05:56:09;7.55;;;1.10;;
23732;SDS011;12047;53.450;-2.286;2022-12-29T06:01:10;9.48;;;1.52;;
23732;SDS011;12047;53.450;-2.286;2022-12-29T06:06:10;8.10;;;0.93;;
23732;SDS011;12047;53.450;-2.286;2022-12-29T06:11:11;9.13;;;1.30;;
23732;SDS011;12047;53.450;-2.286;2022-12-29T06:16:11;6.40;;;1.15;;
23732;SDS011;12047;53.450;-2.286;2022-12-29T06:21:12;7.75;;;1.25;;
23732;SDS011;12047;53.450;-2.286;2022-12-29T06:26:15;3.95;;;0.80;;
23732;SDS011;12047;53.450;-2.286;2022-12-29T06:31:16;6.07;;;1.08;;
23732;SDS011;12047;53.450;-2.286;2022-12-29T06:37:01;6.60;;;1.10;;
23732;SDS011;12047;53.450;-2.286;2022-12-29T06:41:43;5.13;;;0.63;;
23732;SDS011;12047;53.450;-2.286;2022-12-29T06:46:44;5.28;;;1.15;;
23732;SDS011;12047;53.450;-2.286;2022-12-29T06:51:51;8.40;;;0.80;;
23732;SDS011;12047;53.450;-2.286;2022-12-29T06:56:51;7.38;;;1.08;;
23732;SDS011;12047;53.450;-2.286;2022-12-29T07:01:52;4.93;;;0.52;;
23732;SDS011;12047;53.450;-2.286;2022-12-29T07:06:53;5.70;;;1.05;;
23732;SDS011;12047;53.450;-2.286;2022-12-29T07:11:54;3.47;;;0.82;;
23732;SDS011;12047;53.450;-2.286;2022-12-29T07:16:55;5.40;;;0.90;;
23732;SDS011;12047;53.450;-2.286;2022-12-29T07:22:20;5.85;;;0.85;;
23732;SDS011;12047;53.450;-2.286;2022-12-29T07:27:22;4.63;;;1.00;;
23732;SDS011;12047;53.450;-2.286;2022-12-29T07:32:23;3.70;;;0.85;;
23732;SDS011;12047;53.450;-2.286;2022-12-29T07:37:23;5.80;;;1.10;;
23732;SDS011;12047;53.450;-2.286;2022-12-29T07:42:24;5.50;;;0.93;;
23732;SDS011;12047;53.450;-2.286;2022-12-29T07:47:25;4.05;;;0.90;;
23732;SDS011;12047;53.450;-2.286;2022-12-29T07:52:26;3.35;;;0.90;;
23732;SDS011;12047;53.450;-2.286;2022-12-29T07:57:35;6.63;;;1.45;;
23732;SDS011;12047;53.450;-2.286;2022-12-29T08:07:56;7.47;;;0.88;;
23732;SDS011;12047;53.450;-2.286;2022-12-29T08:13:03;7.25;;;0.90;;
23732;SDS011;12047;53.450;-2.286;2022-12-29T08:23:27;7.70;;;1.08;;
23732;SDS011;12047;53.450;-2.286;2022-12-29T08:28:29;9.13;;;2.35;;
23732;SDS011;12047;53.450;-2.286;2022-12-29T08:38:52;6.55;;;0.90;;
23732;SDS011;12047;53.450;-2.286;2022-12-29T08:43:53;6.47;;;1.00;;
23732;SDS011;12047;53.450;-2.286;2022-12-29T09:38:19;8.37;;;1.30;;
23732;SDS011;12047;53.450;-2.286;2022-12-29T10:08:16;13.80;;;2.10;;
23732;SDS011;12047;53.450;-2.286;2022-12-29T10:31:24;13.15;;;2.50;;
23732;SDS011;12047;53.450;-2.286;2022-12-29T10:36:36;15.98;;;3.58;;
23732;SDS011;12047;53.450;-2.286;2022-12-29T10:47:49;14.15;;;2.20;;
23732;SDS011;12047;53.450;-2.286;2022-12-29T10:59:30;14.57;;;2.40;;
23732;SDS011;12047;53.450;-2.286;2022-12-29T11:10:38;17.30;;;1.92;;
23732;SDS011;12047;53.450;-2.286;2022-12-29T11:15:45;13.32;;;2.58;;
23732;SDS011;12047;53.450;-2.286;2022-12-29T11:20:47;18.23;;;2.92;;
23732;SDS011;12047;53.450;-2.286;2022-12-29T11:26:05;14.70;;;2.22;;
23732;SDS011;12047;53.450;-2.286;2022-12-29T11:31:46;16.88;;;2.40;;
23732;SDS011;12047;53.450;-2.286;2022-12-29T11:42:22;14.05;;;2.53;;
23732;SDS011;12047;53.450;-2.286;2022-12-29T11:47:47;13.60;;;2.45;;
23732;SDS011;12047;53.450;-2.286;2022-12-29T11:52:50;12.43;;;2.00;;
23732;SDS011;12047;53.450;-2.286;2022-12-29T11:58:00;11.15;;;1.92;;
23732;SDS011;12047;53.450;-2.286;2022-12-29T12:03:15;10.85;;;1.77;;
23732;SDS011;12047;53.450;-2.286;2022-12-29T12:08:38;16.52;;;2.40;;
23732;SDS011;12047;53.450;-2.286;2022-12-29T12:25:03;10.18;;;1.63;;
23732;SDS011;12047;53.450;-2.286;2022-12-29T12:30:14;13.23;;;2.53;;
23732;SDS011;12047;53.450;-2.286;2022-12-29T12:35:57;14.88;;;2.55;;
23732;SDS011;12047;53.450;-2.286;2022-12-29T12:52:08;10.80;;;2.05;;
23732;SDS011;12047;53.450;-2.286;2022-12-29T12:57:22;14.23;;;2.20;;
23732;SDS011;12047;53.450;-2.286;2022-12-29T13:18:48;12.10;;;2.53;;
23732;SDS011;12047;53.450;-2.286;2022-12-29T13:24:01;12.47;;;2.43;;
23732;SDS011;12047;53.450;-2.286;2022-12-29T13:29:13;13.38;;;2.50;;
23732;SDS011;12047;53.450;-2.286;2022-12-29T13:35:00;11.20;;;2.30;;
23732;SDS011;12047;53.450;-2.286;2022-12-29T13:40:22;9.45;;;2.05;;
23732;SDS011;12047;53.450;-2.286;2022-12-29T13:45:38;18.48;;;2.72;;
23732;SDS011;12047;53.450;-2.286;2022-12-29T13:50:41;12.70;;;1.95;;
23732;SDS011;12047;53.450;-2.286;2022-12-29T14:06:45;17.13;;;3.00;;
23732;SDS011;12047;53.450;-2.286;2022-12-29T14:17:08;17.35;;;3.40;;
23732;SDS011;12047;53.450;-2.286;2022-12-29T14:22:16;14.35;;;2.55;;
23732;SDS011;12047;53.450;-2.286;2022-12-29T14:37:31;20.67;;;3.53;;
23732;SDS011;12047;53.450;-2.286;2022-12-29T14:42:34;11.00;;;2.03;;
23732;SDS011;12047;53.450;-2.286;2022-12-29T14:47:42;13.73;;;2.90;;
23732;SDS011;12047;53.450;-2.286;2022-12-29T14:58:02;8.45;;;1.75;;
23732;SDS011;12047;53.450;-2.286;2022-12-29T15:03:24;6.97;;;1.60;;
23732;SDS011;12047;53.450;-2.286;2022-12-29T15:08:30;14.45;;;2.40;;
23732;SDS011;12047;53.450;-2.286;2022-12-29T15:13:36;6.72;;;1.67;;
23732;SDS011;12047;53.450;-2.286;2022-12-29T15:18:39;9.57;;;1.60;;
23732;SDS011;12047;53.450;-2.286;2022-12-29T15:23:44;8.95;;;2.10;;
23732;SDS011;12047;53.450;-2.286;2022-12-29T15:28:45;10.55;;;2.70;;
23732;SDS011;12047;53.450;-2.286;2022-12-29T15:33:48;11.10;;;2.35;;
23732;SDS011;12047;53.450;-2.286;2022-12-29T15:38:50;8.35;;;1.98;;
23732;SDS011;12047;53.450;-2.286;2022-12-29T15:49:05;10.20;;;1.55;;
23732;SDS011;12047;53.450;-2.286;2022-12-29T15:54:18;14.10;;;2.45;;
23732;SDS011;12047;53.450;-2.286;2022-12-29T15:59:29;11.20;;;3.10;;
23732;SDS011;12047;53.450;-2.286;2022-12-29T16:04:31;12.70;;;2.15;;
23732;SDS011;12047;53.450;-2.286;2022-12-29T16:09:33;10.68;;;1.95;;
23732;SDS011;12047;53.450;-2.286;2022-12-29T16:14:40;18.17;;;1.95;;
23732;SDS011;12047;53.450;-2.286;2022-12-29T16:19:51;14.82;;;2.42;;
23732;SDS011;12047;53.450;-2.286;2022-12-29T16:24:59;14.50;;;2.25;;
23732;SDS011;12047;53.450;-2.286;2022-12-29T16:30:04;10.18;;;2.30;;
23732;SDS011;12047;53.450;-2.286;2022-12-29T16:40:32;12.30;;;2.58;;
23732;SDS011;12047;53.450;-2.286;2022-12-29T16:50:45;11.57;;;1.83;;
23732;SDS011;12047;53.450;-2.286;2022-12-29T16:55:47;10.55;;;2.70;;
23732;SDS011;12047;53.450;-2.286;2022-12-29T17:00:49;9.38;;;2.10;;
23732;SDS011;12047;53.450;-2.286;2022-12-29T17:05:55;10.70;;;2.15;;
23732;SDS011;12047;53.450;-2.286;2022-12-29T17:10:56;7.72;;;1.50;;
23732;SDS011;12047;53.450;-2.286;2022-12-29T17:16:15;6.38;;;1.77;;
23732;SDS011;12047;53.450;-2.286;2022-12-29T17:21:20;9.57;;;2.03;;
23732;SDS011;12047;53.450;-2.286;2022-12-29T17:26:20;8.32;;;2.00;;
23732;SDS011;12047;53.450;-2.286;2022-12-29T17:31:21;8.95;;;2.28;;
23732;SDS011;12047;53.450;-2.286;2022-12-29T17:36:21;9.70;;;2.00;;
23732;SDS011;12047;53.450;-2.286;2022-12-29T17:41:22;9.38;;;2.40;;
23732;SDS011;12047;53.450;-2.286;2022-12-29T17:46:23;11.98;;;2.60;;
23732;SDS011;12047;53.450;-2.286;2022-12-29T17:51:23;9.05;;;2.40;;
23732;SDS011;12047;53.450;-2.286;2022-12-29T17:56:24;13.77;;;3.35;;
23732;SDS011;12047;53.450;-2.286;2022-12-29T18:01:26;12.43;;;2.55;;
23732;SDS011;12047;53.450;-2.286;2022-12-29T18:06:26;12.57;;;2.58;;
23732;SDS011;12047;53.450;-2.286;2022-12-29T18:11:27;12.15;;;2.75;;
23732;SDS011;12047;53.450;-2.286;2022-12-29T18:16:28;15.45;;;2.80;;
23732;SDS011;12047;53.450;-2.286;2022-12-29T18:21:30;9.35;;;2.80;;
23732;SDS011;12047;53.450;-2.286;2022-12-29T18:26:30;14.90;;;3.05;;
23732;SDS011;12047;53.450;-2.286;2022-12-29T18:31:34;16.85;;;3.13;;
23732;SDS011;12047;53.450;-2.286;2022-12-29T18:36:35;17.02;;;3.30;;
23732;SDS011;12047;53.450;-2.286;2022-12-29T18:41:36;13.35;;;2.60;;
23732;SDS011;12047;53.450;-2.286;2022-12-29T18:46:37;11.07;;;2.58;;
23732;SDS011;12047;53.450;-2.286;2022-12-29T18:51:37;12.80;;;2.97;;
23732;SDS011;12047;53.450;-2.286;2022-12-29T18:56:38;10.70;;;2.38;;
23732;SDS011;12047;53.450;-2.286;2022-12-29T19:01:39;13.95;;;2.95;;
23732;SDS011;12047;53.450;-2.286;2022-12-29T19:06:39;13.75;;;3.60;;
23732;SDS011;12047;53.450;-2.286;2022-12-29T19:11:41;10.57;;;2.63;;
23732;SDS011;12047;53.450;-2.286;2022-12-29T19:16:42;15.77;;;2.47;;
23732;SDS011;12047;53.450;-2.286;2022-12-29T19:21:44;10.15;;;3.05;;
23732;SDS011;12047;53.450;-2.286;2022-12-29T19:26:45;11.82;;;2.80;;
23732;SDS011;12047;53.450;-2.286;2022-12-29T19:31:46;8.25;;;2.58;;
23732;SDS011;12047;53.450;-2.286;2022-12-29T19:36:46;15.05;;;2.80;;
23732;SDS011;12047;53.450;-2.286;2022-12-29T19:41:47;10.90;;;2.50;;
23732;SDS011;12047;53.450;-2.286;2022-12-29T19:46:48;9.40;;;2.58;;
23732;SDS011;12047;53.450;-2.286;2022-12-29T19:51:48;14.98;;;5.07;;
23732;SDS011;12047;53.450;-2.286;2022-12-29T19:56:49;13.30;;;4.38;;
23732;SDS011;12047;53.450;-2.286;2022-12-29T20:01:50;13.02;;;4.82;;
23732;SDS011;12047;53.450;-2.286;2022-12-29T20:06:50;18.55;;;4.60;;
23732;SDS011;12047;53.450;-2.286;2022-12-29T20:11:51;18.15;;;4.15;;
23732;SDS011;12047;53.450;-2.286;2022-12-29T20:16:52;12.98;;;3.60;;
23732;SDS011;12047;53.450;-2.286;2022-12-29T20:21:52;12.60;;;4.30;;
23732;SDS011;12047;53.450;-2.286;2022-12-29T20:26:53;16.02;;;3.95;;
23732;SDS011;12047;53.450;-2.286;2022-12-29T20:31:58;17.10;;;3.83;;
23732;SDS011;12047;53.450;-2.286;2022-12-29T20:36:59;17.55;;;5.63;;
23732;SDS011;12047;53.450;-2.286;2022-12-29T20:42:02;10.30;;;3.35;;
23732;SDS011;12047;53.450;-2.286;2022-12-29T20:47:05;13.18;;;4.22;;
23732;SDS011;12047;53.450;-2.286;2022-12-29T20:52:07;12.32;;;4.00;;
23732;SDS011;12047;53.450;-2.286;2022-12-29T20:57:09;10.38;;;3.63;;
23732;SDS011;12047;53.450;-2.286;2022-12-29T21:02:20;14.07;;;3.63;;
23732;SDS011;12047;53.450;-2.286;2022-12-29T21:13:00;13.55;;;4.53;;
23732;SDS011;12047;53.450;-2.286;2022-12-29T21:18:06;14.18;;;4.82;;
23732;SDS011;12047;53.450;-2.286;2022-12-29T21:23:09;15.55;;;3.95;;
23732;SDS011;12047;53.450;-2.286;2022-12-29T21:28:10;13.13;;;3.95;;
23732;SDS011;12047;53.450;-2.286;2022-12-29T21:33:14;23.08;;;5.82;;
23732;SDS011;12047;53.450;-2.286;2022-12-29T21:38:18;13.65;;;4.90;;
23732;SDS011;12047;53.450;-2.286;2022-12-29T21:43:19;20.48;;;4.95;;
23732;SDS011;12047;53.450;-2.286;2022-12-29T21:48:20;21.60;;;6.03;;
23732;SDS011;12047;53.450;-2.286;2022-12-29T21:53:22;29.90;;;12.18;;
23732;SDS011;12047;53.450;-2.286;2022-12-29T21:58:37;24.75;;;7.38;;
23732;SDS011;12047;53.450;-2.286;2022-12-29T22:03:58;16.55;;;4.10;;
23732;SDS011;12047;53.450;-2.286;2022-12-29T22:09:17;21.33;;;4.88;;
23732;SDS011;12047;53.450;-2.286;2022-12-29T22:14:36;15.23;;;4.40;;
23732;SDS011;12047;53.450;-2.286;2022-12-29T22:19:36;13.45;;;3.28;;
23732;SDS011;12047;53.450;-2.286;2022-12-29T22:24:40;18.25;;;3.70;;
23732;SDS011;12047;53.450;-2.286;2022-12-29T22:29:40;15.93;;;3.08;;
23732;SDS011;12047;53.450;-2.286;2022-12-29T22:34:41;16.23;;;3.60;;
23732;SDS011;12047;53.450;-2.286;2022-12-29T22:39:44;18.13;;;3.45;;
23732;SDS011;12047;53.450;-2.286;2022-12-29T22:44:45;17.10;;;3.42;;
23732;SDS011;12047;53.450;-2.286;2022-12-29T22:49:46;16.75;;;3.10;;
23732;SDS011;12047;53.450;-2.286;2022-12-29T22:54:46;9.90;;;2.45;;
23732;SDS011;12047;53.450;-2.286;2022-12-29T22:59:50;17.45;;;3.28;;
23732;SDS011;12047;53.450;-2.286;2022-12-29T23:04:56;16.55;;;2.80;;
23732;SDS011;12047;53.450;-2.286;2022-12-29T23:09:56;14.25;;;2.53;;
23732;SDS011;12047;53.450;-2.286;2022-12-29T23:14:57;16.90;;;2.85;;
23732;SDS011;12047;53.450;-2.286;2022-12-29T23:19:58;9.52;;;2.38;;
23732;SDS011;12047;53.450;-2.286;2022-12-29T23:25:01;14.45;;;2.92;;
23732;SDS011;12047;53.450;-2.286;2022-12-29T23:30:02;24.85;;;3.10;;
23732;SDS011;12047;53.450;-2.286;2022-12-29T23:35:03;24.33;;;3.35;;
23732;SDS011;12047;53.450;-2.286;2022-12-29T23:40:05;20.23;;;3.25;;
23732;SDS011;12047;53.450;-2.286;2022-12-29T23:45:06;19.30;;;3.15;;
23732;SDS011;12047;53.450;-2.286;2022-12-29T23:50:13;15.63;;;3.08;;
23732;SDS011;12047;53.450;-2.286;2022-12-29T23:55:22;20.90;;;4.28;;
